Time;durP1;ratioP1;P1;durP2;ratioP2;P2;SDS_P1;SDS_P2;PMS_P1;PMS_P2;Temp;Humidity;BMP_temperature;BMP_pressure;BME280_temperature;BME280_humidity;BME280_pressure;Samples;Min_cycle;Max_cycle;Signal;HPM_P1;HPM_P2
2022/08/01 00:00:31;;;;;;;5.68;0.82;;;;;;;14.24;74.32;100816.66;5051099;28;20029;-79
2022/08/01 00:02:57;;;;;;;3.00;0.77;;;;;;;14.18;74.52;100812.00;5062291;28;20021;-79
2022/08/01 00:05:23;;;;;;;1.75;0.77;;;;;;;14.15;74.66;100815.81;5039144;28;20029;-79
2022/08/01 00:07:49;;;;;;;3.30;0.75;;;;;;;14.11;74.85;100820.59;5045573;28;20057;-80
2022/08/01 00:10:16;;;;;;;1.10;0.50;;;;;;;14.10;74.89;100826.06;5052964;28;20040;-80
2022/08/01 00:12:43;;;;;;;1.55;0.60;;;;;;;14.09;75.12;100822.59;5072455;28;20049;-79
2022/08/01 00:15:15;;;;;;;4.03;0.80;;;;;;;14.06;75.02;100825.56;5062301;28;20067;-79
2022/08/01 00:17:42;;;;;;;4.30;0.60;;;;;;;13.93;75.29;100827.81;5043174;28;20033;-79
2022/08/01 00:20:11;;;;;;;3.63;0.60;;;;;;;13.90;75.66;100826.31;5055467;28;20035;-79
2022/08/01 00:22:37;;;;;;;1.95;0.82;;;;;;;13.89;75.60;100814.84;5048041;28;20055;-79
2022/08/01 00:25:04;;;;;;;1.08;0.52;;;;;;;13.87;75.78;100816.00;5042145;28;20025;-79
2022/08/01 00:27:31;;;;;;;1.55;0.88;;;;;;;13.83;76.01;100814.63;5053923;28;20060;-79
2022/08/01 00:29:57;;;;;;;3.33;0.68;;;;;;;13.84;75.87;100809.16;5048579;28;20033;-79
2022/08/01 00:32:23;;;;;;;1.45;0.68;;;;;;;13.83;75.64;100809.31;5047724;28;20065;-79
2022/08/01 00:34:49;;;;;;;1.40;0.50;;;;;;;13.72;76.00;100810.41;5037230;28;20120;-79
2022/08/01 00:37:15;;;;;;;7.40;0.80;;;;;;;13.69;76.18;100800.09;5054911;28;20548;-79
2022/08/01 00:39:41;;;;;;;5.78;0.70;;;;;;;13.62;75.92;100797.22;5055269;28;20045;-79
2022/08/01 00:42:11;;;;;;;1.15;0.60;;;;;;;13.59;76.30;100790.41;5053175;28;20032;-79
2022/08/01 00:44:37;;;;;;;1.80;0.82;;;;;;;13.58;76.18;100799.38;5049089;28;20025;-79
2022/08/01 00:47:04;;;;;;;6.15;2.05;;;;;;;13.58;76.12;100790.56;5053679;28;20033;-80
2022/08/01 00:49:30;;;;;;;2.47;1.23;;;;;;;13.57;76.08;100797.69;5042210;28;20059;-79
2022/08/01 00:51:58;;;;;;;4.50;1.27;;;;;;;13.58;76.08;100788.75;5040298;28;20482;-79
2022/08/01 00:54:26;;;;;;;1.50;1.20;;;;;;;13.61;76.47;100793.75;5069717;28;20051;-79
2022/08/01 00:56:52;;;;;;;5.10;1.13;;;;;;;13.65;76.22;100796.91;5036272;28;20052;-80
2022/08/01 00:59:21;;;;;;;6.82;1.25;;;;;;;13.64;76.50;100789.94;5051933;28;20481;-80
2022/08/01 01:01:47;;;;;;;2.60;0.90;;;;;;;13.67;76.67;100794.94;5040030;28;20033;-80
2022/08/01 01:04:13;;;;;;;2.80;0.80;;;;;;;13.64;76.64;100792.59;5045551;28;20112;-81
2022/08/01 01:06:42;;;;;;;5.40;0.90;;;;;;;13.65;76.75;100786.28;5039166;28;20037;-81
2022/08/01 01:09:28;;;;;;;1.35;0.80;;;;;;;13.68;76.97;100798.44;5043549;28;20033;-79
2022/08/01 01:12:20;;;;;;;1.63;0.60;;;;;;;13.69;77.00;100795.63;5047515;28;20366;-79
2022/08/01 01:15:09;;;;;;;3.03;0.88;;;;;;;13.72;77.03;100790.00;5049951;28;20401;-79
2022/08/01 01:17:55;;;;;;;2.40;0.88;;;;;;;13.69;77.10;100785.00;5042448;28;20041;-79
2022/08/01 01:20:27;;;;;;;2.15;1.42;;;;;;;13.61;76.81;100777.81;5048690;28;21301;-79
2022/08/01 01:22:53;;;;;;;1.30;0.60;;;;;;;13.55;77.06;100785.56;5078830;28;20021;-79
2022/08/01 01:25:39;;;;;;;1.25;0.60;;;;;;;13.51;77.34;100777.91;5049131;28;20551;-79
2022/08/01 01:28:12;;;;;;;;;;;;;;;13.36;77.61;100772.28;5053124;28;20040;-79
2022/08/01 01:30:41;;;;;;;6.25;0.68;;;;;;;13.39;77.59;100769.31;5076859;28;19913;-79
2022/08/01 01:33:10;;;;;;;3.25;0.52;;;;;;;13.39;77.43;100765.84;5046794;28;20025;-80
2022/08/01 01:35:42;;;;;;;4.03;0.63;;;;;;;13.36;77.41;100771.47;5052150;28;20036;-80
2022/08/01 01:38:14;;;;;;;1.85;0.50;;;;;;;13.32;77.66;100776.25;5060399;28;20045;-80
2022/08/01 01:40:41;;;;;;;4.10;0.75;;;;;;;13.21;77.81;100769.38;5074607;28;20025;-80
2022/08/01 01:43:10;;;;;;;2.25;0.65;;;;;;;13.25;77.75;100770.72;5075696;28;20120;-79
2022/08/01 01:45:37;;;;;;;1.35;0.90;;;;;;;13.27;77.80;100765.25;5064629;28;20401;-79
2022/08/01 01:48:04;;;;;;;3.33;0.82;;;;;;;13.31;77.80;100763.13;5050988;28;20044;-80
2022/08/01 01:50:31;;;;;;;5.50;1.35;;;;;;;13.32;77.49;100755.00;5046635;28;20486;-80
2022/08/01 01:52:59;;;;;;;1.55;0.80;;;;;;;13.30;77.64;100759.63;5035166;28;20505;-79
2022/08/01 01:55:26;;;;;;;1.95;0.88;;;;;;;13.24;77.88;100769.06;5075647;28;20033;-79
2022/08/01 01:57:53;;;;;;;1.95;0.95;;;;;;;13.22;77.95;100762.25;5046235;28;20123;-79
2022/08/01 02:00:19;;;;;;;3.53;1.60;;;;;;;13.19;77.95;100747.44;5051407;28;20040;-79
2022/08/01 02:02:46;;;;;;;2.47;2.22;;;;;;;13.19;78.17;100757.22;5082149;28;20032;-79
2022/08/01 02:05:13;;;;;;;4.53;1.70;;;;;;;13.19;78.00;100755.41;5042497;28;20041;-79
2022/08/01 02:07:40;;;;;;;2.58;1.60;;;;;;;13.15;77.84;100762.84;5065042;28;20042;-79
2022/08/01 02:10:08;;;;;;;5.72;1.50;;;;;;;13.14;78.25;100765.66;5076167;28;20444;-79
2022/08/01 02:12:37;;;;;;;3.00;1.25;;;;;;;13.15;78.36;100764.69;5049326;28;20029;-80
2022/08/01 02:15:05;;;;;;;5.40;1.35;;;;;;;13.11;78.76;100761.50;5036390;28;20037;-79
2022/08/01 02:17:32;;;;;;;4.20;1.10;;;;;;;13.10;78.57;100756.34;5043820;28;20474;-79
2022/08/01 02:19:58;;;;;;;2.17;1.13;;;;;;;13.13;78.96;100764.84;5039838;28;20388;-79
2022/08/01 02:22:40;;;;;;;9.35;1.67;;;;;;;13.11;78.58;100763.31;5078026;28;20474;-80
2022/08/01 02:25:16;;;;;;;3.17;1.25;;;;;;;13.10;78.62;100765.13;5047337;28;20037;-80
2022/08/01 02:28:00;;;;;;;;;;;;;;;12.93;79.08;100763.31;5051589;28;20120;-80
2022/08/01 02:30:31;;;;;;;1.50;1.23;;;;;;;12.91;79.42;100760.81;5055930;28;19921;-80
2022/08/01 02:33:12;;;;;;;4.05;1.35;;;;;;;12.90;79.18;100759.97;5035190;28;20156;-79
2022/08/01 02:35:41;;;;;;;1.95;1.38;;;;;;;12.86;79.71;100744.53;5045268;28;20038;-79
2022/08/01 02:38:12;;;;;;;6.93;1.20;;;;;;;12.80;79.26;100750.44;5040543;28;20071;-79
2022/08/01 02:40:43;;;;;;;5.22;1.50;;;;;;;12.77;79.56;100739.13;5031437;28;20030;-79
2022/08/01 02:43:12;;;;;;;2.42;1.25;;;;;;;12.78;79.71;100734.66;5050354;28;20031;-79
2022/08/01 02:45:43;;;;;;;4.93;1.10;;;;;;;12.78;79.81;100742.63;5078612;28;20029;-79
2022/08/01 02:48:14;;;;;;;2.30;1.08;;;;;;;12.76;79.61;100748.09;5043657;28;20056;-80
2022/08/01 02:50:48;;;;;;;1.60;1.20;;;;;;;12.76;79.76;100752.53;5072561;28;20045;-80
2022/08/01 02:53:16;;;;;;;9.82;1.27;;;;;;;12.76;79.80;100750.75;5045814;28;20040;-79
2022/08/01 02:55:47;;;;;;;6.45;1.10;;;;;;;12.79;79.95;100744.28;5046616;28;20037;-79
2022/08/01 02:58:16;;;;;;;2.25;1.10;;;;;;;12.75;79.98;100738.47;5048013;28;20043;-79
2022/08/01 03:00:46;;;;;;;3.50;1.60;;;;;;;12.72;79.81;100735.28;5075895;28;20109;-79
2022/08/01 03:03:14;;;;;;;2.65;1.17;;;;;;;12.72;79.78;100733.47;5046249;28;20037;-79
2022/08/01 03:05:41;;;;;;;1.90;0.90;;;;;;;12.74;80.04;100733.31;5048908;28;20047;-79
2022/08/01 03:08:09;;;;;;;2.95;0.70;;;;;;;12.77;79.63;100735.66;5050452;28;20047;-80
2022/08/01 03:10:38;;;;;;;7.18;1.10;;;;;;;12.80;79.79;100726.56;5046487;28;20051;-80
2022/08/01 03:13:07;;;;;;;4.28;1.00;;;;;;;12.81;79.52;100733.53;5048117;28;20037;-80
2022/08/01 03:15:37;;;;;;;2.58;0.85;;;;;;;12.74;79.59;100731.47;5048538;28;20033;-80
2022/08/01 03:18:06;;;;;;;4.45;1.40;;;;;;;12.74;79.82;100733.31;5051489;28;20036;-79
2022/08/01 03:20:33;;;;;;;2.67;1.40;;;;;;;12.73;79.76;100727.16;5065345;28;20067;-79
2022/08/01 03:23:03;;;;;;;3.85;0.90;;;;;;;12.75;80.12;100725.22;5047303;28;20025;-79
2022/08/01 03:25:31;;;;;;;3.67;0.80;;;;;;;12.76;80.25;100728.69;5050481;28;20464;-79
2022/08/01 03:28:01;;;;;;;2.83;1.02;;;;;;;12.77;79.99;100720.56;5046042;28;20490;-79
2022/08/01 03:30:29;;;;;;;4.85;0.98;;;;;;;12.76;79.82;100718.91;5062549;28;20079;-79
2022/08/01 03:32:56;;;;;;;3.70;1.20;;;;;;;12.77;79.81;100720.56;5050116;28;20036;-79
2022/08/01 03:35:28;;;;;;;1.98;1.23;;;;;;;12.81;79.92;100720.25;5049109;28;20513;-79
2022/08/01 03:37:56;;;;;;;2.03;1.15;;;;;;;12.82;80.07;100724.59;5048634;28;20063;-79
2022/08/01 03:40:25;;;;;;;3.80;1.00;;;;;;;12.76;79.99;100724.22;5048086;28;20025;-79
2022/08/01 03:43:02;;;;;;;3.25;1.13;;;;;;;12.66;80.43;100718.16;5048371;28;20477;-79
2022/08/01 03:45:34;;;;;;;1.90;0.90;;;;;;;12.62;80.60;100704.38;5045981;28;20033;-79
2022/08/01 03:48:03;;;;;;;1.30;0.98;;;;;;;12.62;80.82;100699.06;5046413;28;20039;-79
2022/08/01 03:50:33;;;;;;;3.53;1.50;;;;;;;12.58;80.72;100715.44;5036355;28;20891;-79
2022/08/01 03:53:02;;;;;;;10.77;1.00;;;;;;;12.49;80.67;100706.53;5041009;28;20458;-79
2022/08/01 03:55:30;;;;;;;4.40;1.10;;;;;;;12.48;81.02;100702.25;5045096;28;20504;-79
2022/08/01 03:57:58;;;;;;;2.63;1.10;;;;;;;12.45;81.42;100715.78;5045910;28;20032;-79
2022/08/01 04:00:25;;;;;;;5.38;0.80;;;;;;;12.43;80.83;100707.16;5049695;28;20029;-79
2022/08/01 04:02:51;;;;;;;2.70;0.80;;;;;;;12.39;81.30;100711.94;5050446;28;20120;-79
2022/08/01 04:05:18;;;;;;;3.17;0.90;;;;;;;12.38;80.82;100702.28;5048932;28;20029;-79
2022/08/01 04:07:55;;;;;;;3.33;0.90;;;;;;;12.36;80.79;100691.03;5051223;28;20524;-80
2022/08/01 04:10:24;;;;;;;6.85;1.05;;;;;;;12.37;80.90;100703.28;5052873;28;20032;-80
2022/08/01 04:12:51;;;;;;;2.38;1.10;;;;;;;12.35;81.09;100695.50;5053133;28;20482;-79
2022/08/01 04:15:17;;;;;;;2.22;1.00;;;;;;;12.37;80.92;100690.03;5052295;28;20030;-79
2022/08/01 04:17:43;;;;;;;3.10;0.90;;;;;;;12.46;80.66;100697.09;5043497;28;20041;-80
2022/08/01 04:20:10;;;;;;;6.50;0.93;;;;;;;12.54;80.58;100685.72;5048251;28;20051;-80
2022/08/01 04:22:37;;;;;;;2.95;1.02;;;;;;;12.60;80.78;100694.88;5051263;28;20034;-79
2022/08/01 04:25:09;;;;;;;3.22;0.90;;;;;;;12.64;80.47;100697.09;5042855;28;20025;-79
2022/08/01 04:27:38;;;;;;;4.30;1.20;;;;;;;12.64;80.41;100691.81;5048733;28;20055;-79
2022/08/01 04:30:06;;;;;;;3.20;1.10;;;;;;;12.66;80.28;100694.31;5059339;28;20025;-79
2022/08/01 04:32:35;;;;;;;1.45;1.23;;;;;;;12.63;81.11;100690.13;5050955;28;20036;-79
2022/08/01 04:35:06;;;;;;;1.20;0.93;;;;;;;12.58;81.01;100686.25;5052154;28;20063;-79
2022/08/01 04:37:33;;;;;;;4.82;1.00;;;;;;;12.56;81.69;100677.63;5061373;28;20064;-79
2022/08/01 04:40:00;;;;;;;3.95;1.13;;;;;;;12.52;81.46;100680.56;5080424;28;20116;-79
2022/08/01 04:42:27;;;;;;;3.45;1.20;;;;;;;12.48;81.52;100684.53;5046087;28;20099;-79
2022/08/01 04:44:53;;;;;;;5.97;2.38;;;;;;;12.49;81.59;100688.81;5069115;28;20461;-79
2022/08/01 04:47:19;;;;;;;2.90;1.33;;;;;;;12.48;81.40;100692.47;5049832;28;20036;-79
2022/08/01 04:49:46;;;;;;;3.42;1.23;;;;;;;12.48;81.52;100689.81;5040317;28;20044;-79
2022/08/01 04:52:12;;;;;;;5.90;1.10;;;;;;;12.48;81.44;100694.28;5042811;28;20036;-79
2022/08/01 04:54:37;;;;;;;2.47;0.93;;;;;;;12.51;81.43;100681.56;5045209;28;20029;-80
2022/08/01 04:57:04;;;;;;;3.75;1.60;;;;;;;12.52;81.24;100672.63;5042495;28;20044;-79
2022/08/01 04:59:39;;;;;;;2.88;0.90;;;;;;;12.51;81.25;100667.47;5043852;28;20036;-79
2022/08/01 05:02:06;;;;;;;2.03;1.10;;;;;;;12.49;81.56;100674.72;5051217;28;20040;-79
2022/08/01 05:04:31;;;;;;;4.88;0.82;;;;;;;12.40;81.25;100677.31;5044301;28;20040;-79
2022/08/01 05:06:57;;;;;;;4.55;1.00;;;;;;;12.37;81.71;100672.31;5040336;28;20148;-79
2022/08/01 05:09:23;;;;;;;2.67;0.82;;;;;;;12.39;81.66;100675.63;5045345;28;20033;-79
2022/08/01 05:11:49;;;;;;;4.10;1.10;;;;;;;12.44;81.39;100669.06;5041509;28;20053;-79
2022/08/01 05:14:15;;;;;;;1.25;0.95;;;;;;;12.45;81.39;100671.56;5080558;28;20044;-79
2022/08/01 05:16:41;;;;;;;4.82;0.90;;;;;;;12.49;81.59;100667.63;5055946;28;20430;-79
2022/08/01 05:19:08;;;;;;;2.50;0.95;;;;;;;12.48;81.34;100662.47;5051664;28;20037;-79
2022/08/01 05:21:34;;;;;;;2.53;0.90;;;;;;;12.45;81.95;100670.72;5052158;28;20044;-79
2022/08/01 05:24:00;;;;;;;3.00;0.98;;;;;;;12.41;81.96;100667.53;5039648;28;20025;-79
2022/08/01 05:26:26;;;;;;;4.20;0.95;;;;;;;12.39;81.90;100664.22;5030950;28;20028;-79
2022/08/01 05:28:51;;;;;;;2.60;1.20;;;;;;;12.36;82.14;100665.34;5056481;28;20111;-79
2022/08/01 05:31:17;;;;;;;3.65;1.20;;;;;;;12.40;82.23;100669.38;5041055;28;20037;-79
2022/08/01 05:33:43;;;;;;;4.07;1.17;;;;;;;12.40;82.56;100660.56;5034736;28;20084;-79
2022/08/01 05:36:09;;;;;;;2.05;0.93;;;;;;;12.39;82.38;100659.72;5061487;28;20032;-79
2022/08/01 05:38:35;;;;;;;1.92;0.82;;;;;;;12.46;82.11;100664.44;5038416;28;20063;-79
2022/08/01 05:41:01;;;;;;;2.05;1.05;;;;;;;12.50;82.30;100665.81;5074128;28;20049;-79
2022/08/01 05:43:27;;;;;;;4.93;1.40;;;;;;;12.46;82.06;100665.28;5033049;28;20033;-79
2022/08/01 05:45:53;;;;;;;5.03;1.08;;;;;;;12.41;82.18;100667.53;5045352;28;20397;-79
2022/08/01 05:48:18;;;;;;;4.25;1.15;;;;;;;12.35;82.19;100668.13;5041046;28;20033;-79
2022/08/01 05:50:44;;;;;;;1.23;0.70;;;;;;;12.25;82.55;100670.84;5062366;28;20025;-79
2022/08/01 05:53:10;;;;;;;2.25;1.17;;;;;;;12.16;83.34;100672.59;5019371;28;20129;-79
2022/08/01 05:55:36;;;;;;;6.63;1.08;;;;;;;12.17;83.41;100674.25;5036055;28;20156;-79
2022/08/01 05:58:02;;;;;;;9.77;1.08;;;;;;;12.19;83.57;100674.94;5048382;28;20124;-80
2022/08/01 06:00:28;;;;;;;4.22;1.00;;;;;;;12.20;83.63;100658.06;5049215;28;20033;-80
2022/08/01 06:02:54;;;;;;;2.10;1.05;;;;;;;12.18;83.80;100660.03;5076616;28;20108;-79
2022/08/01 06:05:20;;;;;;;2.92;0.65;;;;;;;12.24;83.82;100659.44;5046425;28;20033;-79
2022/08/01 06:07:46;;;;;;;3.40;1.05;;;;;;;12.34;84.32;100658.53;5044767;28;20556;-79
2022/08/01 06:10:11;;;;;;;2.53;0.95;;;;;;;12.39;84.25;100656.28;5039521;28;20116;-79
2022/08/01 06:12:38;;;;;;;1.70;1.02;;;;;;;12.49;84.52;100646.41;5054903;28;20468;-80
2022/08/01 06:15:06;;;;;;;2.38;1.08;;;;;;;12.61;84.54;100632.91;5050664;28;20029;-80
2022/08/01 06:17:32;;;;;;;5.10;1.33;;;;;;;12.73;84.39;100636.16;5055329;28;20025;-79
2022/08/01 06:19:57;;;;;;;3.00;1.20;;;;;;;12.83;84.50;100628.09;5043736;28;20035;-79
2022/08/01 06:22:23;;;;;;;5.40;1.10;;;;;;;12.93;84.45;100628.03;5048953;28;20059;-79
2022/08/01 06:24:49;;;;;;;2.65;0.95;;;;;;;13.00;84.45;100635.19;5045205;28;20033;-79
2022/08/01 06:27:15;;;;;;;3.92;1.40;;;;;;;13.07;85.08;100635.41;5048545;28;20045;-79
2022/08/01 06:29:42;;;;;;;4.75;1.23;;;;;;;13.14;85.32;100628.47;5036557;28;20060;-79
2022/08/01 06:32:09;;;;;;;3.80;1.15;;;;;;;13.17;86.05;100631.81;5043993;28;20045;-79
2022/08/01 06:34:35;;;;;;;1.67;1.02;;;;;;;13.19;86.49;100630.66;5037426;28;20036;-79
2022/08/01 06:37:01;;;;;;;3.25;1.30;;;;;;;13.26;86.70;100628.22;5042212;28;20041;-79
2022/08/01 06:39:27;;;;;;;3.22;1.40;;;;;;;13.29;86.69;100633.22;5043251;28;20098;-79
2022/08/01 06:41:53;;;;;;;4.13;1.50;;;;;;;13.33;87.31;100621.28;5035893;28;20466;-79
2022/08/01 06:44:19;;;;;;;4.28;1.38;;;;;;;13.35;87.68;100621.13;5056682;28;20072;-79
2022/08/01 06:46:44;;;;;;;2.65;1.58;;;;;;;13.33;87.91;100628.44;5046574;28;20051;-79
2022/08/01 06:49:10;;;;;;;3.35;1.35;;;;;;;13.38;88.06;100612.84;5039727;28;20036;-79
2022/08/01 06:51:36;;;;;;;3.47;1.42;;;;;;;13.38;88.46;100620.81;5042491;28;20125;-79
2022/08/01 06:54:02;;;;;;;2.13;1.30;;;;;;;13.38;89.23;100621.66;5030655;28;20037;-79
2022/08/01 06:56:28;;;;;;;2.22;1.00;;;;;;;13.48;89.30;100618.88;5043524;28;20110;-79
2022/08/01 06:59:00;;;;;;;3.63;1.40;;;;;;;13.64;88.87;100625.28;5048894;28;20167;-80
2022/08/01 07:01:28;;;;;;;2.30;1.20;;;;;;;13.73;88.61;100616.34;5038873;28;20512;-80
2022/08/01 07:03:54;;;;;;;3.30;1.88;;;;;;;13.86;88.46;100617.69;5042227;28;20025;-79
2022/08/01 07:06:22;;;;;;;3.45;1.25;;;;;;;13.95;88.04;100624.69;5053801;28;20123;-79
2022/08/01 07:08:47;;;;;;;1.52;1.00;;;;;;;14.03;87.71;100623.88;5038059;28;20033;-79
2022/08/01 07:11:13;;;;;;;3.03;1.30;;;;;;;14.13;87.64;100616.59;5043525;28;20041;-79
2022/08/01 07:13:39;;;;;;;1.73;1.00;;;;;;;14.24;87.25;100626.09;5049346;28;20075;-80
2022/08/01 07:16:05;;;;;;;4.13;1.05;;;;;;;14.34;86.84;100625.09;5054158;28;20053;-80
2022/08/01 07:18:31;;;;;;;1.75;1.20;;;;;;;14.44;86.47;100620.47;5061248;28;20072;-79
2022/08/01 07:20:56;;;;;;;5.07;1.20;;;;;;;14.53;86.10;100631.94;5047081;28;20033;-79
2022/08/01 07:23:22;;;;;;;3.17;0.93;;;;;;;14.62;86.00;100611.50;5048807;28;20060;-78
2022/08/01 07:25:49;;;;;;;4.80;1.00;;;;;;;14.79;86.06;100614.13;5039373;28;20074;-79
2022/08/01 07:28:15;;;;;;;4.22;1.58;;;;;;;15.04;86.05;100606.97;5064255;28;20071;-79
2022/08/01 07:30:41;;;;;;;2.13;0.93;;;;;;;15.27;85.74;100610.72;5045405;28;20033;-79
2022/08/01 07:33:08;;;;;;;2.00;1.17;;;;;;;15.55;85.58;100600.47;5050230;28;20077;-79
2022/08/01 07:35:34;;;;;;;3.75;1.10;;;;;;;15.79;85.55;100603.19;5051400;28;20044;-79
2022/08/01 07:37:59;;;;;;;1.60;1.25;;;;;;;16.02;85.38;100599.75;5064318;28;20045;-80
2022/08/01 07:40:25;;;;;;;1.85;0.80;;;;;;;16.29;84.67;100595.75;5056562;28;20097;-80
2022/08/01 07:42:51;;;;;;;5.70;1.15;;;;;;;16.56;83.95;100593.50;5043745;28;20058;-79
2022/08/01 07:45:17;;;;;;;3.88;1.20;;;;;;;16.84;83.24;100592.91;5021372;28;20034;-79
2022/08/01 07:47:43;;;;;;;4.07;0.90;;;;;;;16.95;82.15;100591.63;5048583;28;20120;-79
2022/08/01 07:50:09;;;;;;;2.40;0.85;;;;;;;17.04;80.82;100588.88;5051247;28;20068;-79
2022/08/01 07:52:35;;;;;;;1.98;0.88;;;;;;;17.11;80.04;100589.81;5040328;28;20088;-79
2022/08/01 07:55:02;;;;;;;2.45;1.10;;;;;;;17.21;79.30;100582.38;5069734;28;20045;-79
2022/08/01 07:57:27;;;;;;;1.63;1.10;;;;;;;17.33;78.58;100576.53;5049974;28;20102;-79
2022/08/01 07:59:53;;;;;;;2.40;0.80;;;;;;;17.32;77.92;100586.41;5058765;28;20481;-79
2022/08/01 08:02:19;;;;;;;1.60;0.82;;;;;;;17.34;77.90;100576.34;5054996;28;20063;-80
2022/08/01 08:04:45;;;;;;;5.03;0.80;;;;;;;17.39;77.00;100581.13;5046461;28;20068;-80
2022/08/01 08:07:11;;;;;;;1.73;0.88;;;;;;;17.42;77.02;100579.94;5078636;28;20033;-80
2022/08/01 08:09:37;;;;;;;2.42;0.80;;;;;;;17.45;76.92;100582.25;5052084;28;20477;-80
2022/08/01 08:12:03;;;;;;;1.92;0.90;;;;;;;17.40;76.56;100587.31;5048268;28;20040;-79
2022/08/01 08:14:29;;;;;;;3.90;0.85;;;;;;;17.32;76.57;100590.91;5034135;28;20033;-79
2022/08/01 08:16:55;;;;;;;1.58;0.70;;;;;;;17.16;76.65;100591.94;5057683;28;20393;-79
2022/08/01 08:19:21;;;;;;;1.77;0.73;;;;;;;17.07;76.63;100588.50;5076526;28;20040;-79
2022/08/01 08:21:46;;;;;;;0.93;0.73;;;;;;;16.98;77.26;100587.75;5051661;28;20041;-79
2022/08/01 08:24:23;;;;;;;1.38;0.73;;;;;;;16.92;77.42;100589.34;5050463;28;20068;-79
2022/08/01 08:26:56;;;;;;;2.42;0.77;;;;;;;16.87;77.44;100581.03;5040569;28;20111;-79
2022/08/01 08:29:23;;;;;;;1.60;0.60;;;;;;;16.83;77.88;100575.22;5059535;28;20064;-79
2022/08/01 08:31:50;;;;;;;1.85;0.50;;;;;;;16.84;77.68;100582.25;5048641;28;20421;-79
2022/08/01 08:34:16;;;;;;;2.17;0.93;;;;;;;16.87;77.76;100578.34;5055422;28;20036;-79
2022/08/01 08:36:42;;;;;;;3.72;0.70;;;;;;;16.91;77.52;100581.50;5053539;28;20105;-79
2022/08/01 08:39:08;;;;;;;2.67;0.63;;;;;;;16.97;77.70;100580.78;5047682;28;20485;-79
2022/08/01 08:41:34;;;;;;;1.15;0.60;;;;;;;17.01;77.67;100571.38;5056238;28;20032;-79
2022/08/01 08:44:02;;;;;;;4.70;0.70;;;;;;;17.02;77.56;100575.72;5045276;28;20773;-79
2022/08/01 08:46:28;;;;;;;19.40;1.42;;;;;;;17.07;77.85;100573.28;5046331;28;20120;-79
2022/08/01 08:48:58;;;;;;;2.20;0.73;;;;;;;17.20;77.66;100558.53;5052890;28;20024;-79
2022/08/01 08:51:26;;;;;;;3.10;0.80;;;;;;;17.29;77.61;100557.41;5083827;28;20079;-79
2022/08/01 08:53:57;;;;;;;4.70;0.77;;;;;;;17.39;77.29;100551.75;5048939;28;20037;-79
2022/08/01 08:56:24;;;;;;;4.38;0.65;;;;;;;17.46;77.25;100541.97;5052828;28;20049;-79
2022/08/01 08:58:51;;;;;;;3.15;0.70;;;;;;;17.56;77.58;100536.34;5051063;28;20032;-79
2022/08/01 09:01:18;;;;;;;2.15;0.68;;;;;;;17.65;77.67;100538.88;5049869;28;20115;-79
2022/08/01 09:03:44;;;;;;;3.90;0.73;;;;;;;17.76;77.92;100535.72;5053501;28;20482;-80
2022/08/01 09:06:10;;;;;;;3.25;0.50;;;;;;;17.85;77.78;100534.56;5053788;28;20036;-79
2022/08/01 09:08:36;;;;;;;1.02;0.50;;;;;;;17.93;77.46;100528.25;5070864;28;20037;-79
2022/08/01 09:11:03;;;;;;;1.27;0.43;;;;;;;18.01;76.98;100521.16;5066618;28;20032;-79
2022/08/01 09:13:29;;;;;;;5.07;0.70;;;;;;;18.06;76.35;100527.56;5047066;28;20033;-80
2022/08/01 09:15:58;;;;;;;2.00;0.30;;;;;;;18.17;76.36;100525.44;5053668;28;20033;-81
2022/08/01 09:18:43;;;;;;;1.65;0.30;;;;;;;18.26;75.67;100523.44;5052300;28;20162;-79
2022/08/01 09:21:10;;;;;;;5.30;1.10;;;;;;;18.28;76.05;100508.03;5053465;28;20066;-79
2022/08/01 09:23:42;;;;;;;5.70;1.52;;;;;;;18.29;75.99;100510.50;5044426;28;20456;-79
2022/08/01 09:26:09;;;;;;;2.40;0.60;;;;;;;18.36;75.82;100510.56;5055578;28;20477;-79
2022/08/01 09:28:36;;;;;;;0.60;0.50;;;;;;;18.44;75.94;100504.25;5058781;28;20024;-79
2022/08/01 09:31:12;;;;;;;2.65;0.57;;;;;;;18.51;75.16;100512.28;5055880;28;20061;-79
2022/08/01 09:33:56;;;;;;;1.20;0.30;;;;;;;18.41;73.60;100505.44;5046762;28;20125;-79
2022/08/01 09:36:42;;;;;;;1.92;0.60;;;;;;;18.32;73.64;100502.09;5059395;28;20052;-80
2022/08/01 09:39:15;;;;;;;4.28;0.60;;;;;;;18.27;73.47;100495.69;5057234;28;20057;-79
2022/08/01 09:41:41;;;;;;;5.50;0.55;;;;;;;18.27;73.49;100496.50;5051098;28;20036;-79
2022/08/01 09:44:07;;;;;;;2.42;0.50;;;;;;;18.23;73.17;100495.22;5057553;28;20047;-79
2022/08/01 09:46:33;;;;;;;3.78;0.63;;;;;;;18.17;73.13;100486.13;5088268;28;20059;-79
2022/08/01 09:49:06;;;;;;;1.98;0.40;;;;;;;18.15;73.32;100492.69;5052689;28;20031;-79
2022/08/01 09:51:37;;;;;;;1.00;0.60;;;;;;;18.15;73.67;100503.41;5054501;28;20043;-80
2022/08/01 09:54:05;;;;;;;1.80;0.52;;;;;;;18.14;73.90;100499.88;5055123;28;20111;-81
2022/08/01 09:56:45;;;;;;;3.80;0.50;;;;;;;17.98;74.49;100488.41;5051521;28;20033;-81
2022/08/01 09:59:12;;;;;;;3.17;0.70;;;;;;;17.88;76.17;100484.41;5054943;28;20764;-80
2022/08/01 10:01:49;;;;;;;1.63;0.68;;;;;;;17.83;76.83;100488.50;5059668;28;20033;-80
2022/08/01 10:04:17;;;;;;;0.85;0.50;;;;;;;17.76;78.16;100482.25;5032560;28;20058;-79
2022/08/01 10:06:52;;;;;;;2.42;0.40;;;;;;;17.65;78.38;100485.41;5053180;28;20526;-79
2022/08/01 10:09:28;;;;;;;0.60;0.40;;;;;;;17.49;78.67;100479.31;5048784;28;20036;-79
2022/08/01 10:11:56;;;;;;;0.75;0.40;;;;;;;17.43;78.89;100488.91;5048053;28;20044;-80
2022/08/01 10:14:25;;;;;;;1.80;0.70;;;;;;;17.36;78.79;100488.84;5047801;28;20025;-80
2022/08/01 10:16:53;;;;;;;1.65;0.80;;;;;;;17.29;79.04;100489.78;5049543;28;20025;-79
2022/08/01 10:19:22;;;;;;;0.63;0.50;;;;;;;17.25;79.32;100497.34;5065828;28;20028;-79
2022/08/01 10:21:51;;;;;;;1.30;0.70;;;;;;;17.21;79.78;100504.06;5047161;28;20029;-79
2022/08/01 10:24:19;;;;;;;2.55;0.60;;;;;;;17.22;80.17;100505.72;5042759;28;20029;-79
2022/08/01 10:26:48;;;;;;;1.13;0.60;;;;;;;17.29;80.21;100498.63;5084859;28;20033;-79
2022/08/01 10:29:18;;;;;;;1.10;0.57;;;;;;;17.33;80.47;100496.41;5084758;28;20065;-79
2022/08/01 10:31:45;;;;;;;17.08;1.20;;;;;;;17.38;80.86;100496.66;5051869;28;20041;-79
2022/08/01 10:34:15;;;;;;;1.10;0.50;;;;;;;17.46;81.11;100501.06;5053705;28;20044;-79
2022/08/01 10:36:42;;;;;;;0.73;0.43;;;;;;;17.53;81.13;100493.13;5053495;28;20036;-78
2022/08/01 10:39:11;;;;;;;2.88;0.70;;;;;;;17.57;81.41;100502.41;5052150;28;20049;-79
2022/08/01 10:41:39;;;;;;;2.28;0.73;;;;;;;17.53;81.64;100493.13;5051073;28;20116;-79
2022/08/01 10:44:09;;;;;;;2.53;0.70;;;;;;;17.51;82.31;100500.50;5053068;28;20045;-79
2022/08/01 10:46:39;;;;;;;0.75;0.60;;;;;;;17.48;83.36;100499.88;5064212;28;20039;-79
2022/08/01 10:49:15;;;;;;;0.95;0.50;;;;;;;17.48;83.88;100496.38;5033628;28;20123;-79
2022/08/01 10:51:41;;;;;;;;;;;;;;;17.31;86.58;100493.09;5049082;28;20032;-79
2022/08/01 10:54:08;;;;;;;;;;;;;;;17.23;88.14;100486.84;5054954;28;20430;-79
2022/08/01 10:56:40;;;;;;;1.00;0.70;;;;;;;17.25;87.14;100485.84;5032708;28;20043;-79
2022/08/01 10:59:06;;;;;;;1.38;0.80;;;;;;;17.19;87.86;100482.06;5057039;28;20045;-79
2022/08/01 11:01:33;;;;;;;4.32;1.10;;;;;;;17.05;89.91;100479.22;5051682;28;20036;-79
2022/08/01 11:04:02;;;;;;;1.67;0.90;;;;;;;16.98;90.65;100479.13;5048765;28;20128;-79
2022/08/01 11:06:34;;;;;;;1.52;0.60;;;;;;;17.01;91.84;100469.91;5084878;28;20082;-79
2022/08/01 11:09:45;;;;;;;1.52;0.80;;;;;;;16.99;92.88;100470.09;5059206;28;20045;-79
2022/08/01 11:12:16;;;;;;;1.88;0.73;;;;;;;17.05;94.02;100471.19;5045470;28;20405;-79
2022/08/01 11:14:57;;;;;;;3.97;0.70;;;;;;;17.08;94.75;100465.53;5048778;28;21297;-79
2022/08/01 11:17:36;;;;;;;0.90;0.70;;;;;;;17.11;95.16;100453.63;5047358;28;20409;-79
2022/08/01 11:20:11;;;;;;;0.85;0.85;;;;;;;17.12;95.63;100449.94;5048260;28;20065;-79
2022/08/01 11:23:10;;;;;;;1.02;0.80;;;;;;;17.15;95.95;100438.91;5048880;28;20079;-79
2022/08/01 11:25:36;;;;;;;2.35;1.00;;;;;;;17.24;97.02;100442.28;5034757;28;20956;-79
2022/08/01 11:28:14;;;;;;;2.08;1.20;;;;;;;17.33;96.79;100432.28;5048201;28;20531;-79
2022/08/01 11:30:40;;;;;;;1.33;0.90;;;;;;;17.38;96.83;100421.03;5040160;28;20044;-78
2022/08/01 11:33:07;;;;;;;1.27;0.77;;;;;;;17.44;96.47;100429.13;5043672;28;20072;-79